< < Back
Terminal Aerodrome Forecast


Current Version              Previous Versions:   1  2  3  4  5  6  7  8  9  

Terminal Aerodrome Forecast

924
FTUS44 KMOB 211100
TAFMOB
TAF
KMOB 211122Z 2112/2212 00000KT P6SM FEW250
     FM211800 21005KT P6SM VCTS SCT030CB SCT300
     FM220000 20004KT P6SM FEW250=

Latest METAR

811
SAUS80 KWBC 211600
MTRMOB
METAR KMOB 211556Z 26003KT 10SM SCT025 BKN250 31/23 A3016 RMK AO2 SLP209
T03110233


USA.gov is the U.S. government's official web portal to all federal, state and local government web resources and services.